createdAt,value
2018-05-24T00:02:10.892Z,99.90
2018-05-24T00:04:38.937Z,99.90
2018-05-24T00:07:06.975Z,99.90
2018-05-24T00:09:35.103Z,99.90
2018-05-24T00:12:03.221Z,99.90
2018-05-24T00:14:31.319Z,99.90
2018-05-24T00:16:59.397Z,99.90
2018-05-24T00:19:27.848Z,99.90
2018-05-24T00:21:56.632Z,99.90
2018-05-24T00:24:25.411Z,99.90
2018-05-24T00:26:53.453Z,99.90
2018-05-24T00:29:22.264Z,99.90
2018-05-24T00:31:50.299Z,99.90
2018-05-24T00:34:18.368Z,99.90
2018-05-24T00:36:47.065Z,99.90
2018-05-24T00:39:15.872Z,99.90
2018-05-24T00:41:45.372Z,99.90
2018-05-24T00:44:14.168Z,99.90
2018-05-24T00:46:42.223Z,99.90
2018-05-24T00:49:11.037Z,99.90
2018-05-24T00:51:39.536Z,99.90
2018-05-24T00:54:07.575Z,99.90
2018-05-24T00:56:35.976Z,99.90
2018-05-24T00:59:04.875Z,99.90
2018-05-24T01:01:33.657Z,99.90
2018-05-24T01:04:02.468Z,99.90
2018-05-24T01:06:31.376Z,99.90
2018-05-24T01:08:59.397Z,99.90
2018-05-24T01:11:27.528Z,99.90
2018-05-24T01:13:55.571Z,99.90
2018-05-24T01:16:23.670Z,99.90
2018-05-24T01:18:51.676Z,99.90
2018-05-24T01:21:19.725Z,99.90
2018-05-24T01:23:48.552Z,99.90
2018-05-24T01:26:16.571Z,99.90
2018-05-24T01:28:44.607Z,99.90
2018-05-24T01:31:12.665Z,99.90
2018-05-24T01:33:40.724Z,99.90
2018-05-24T01:36:08.761Z,99.90
2018-05-24T01:38:37.584Z,99.90
2018-05-24T01:41:05.628Z,99.90
2018-05-24T01:43:34.427Z,99.90
2018-05-24T01:46:02.483Z,99.90
2018-05-24T01:48:30.534Z,99.90
2018-05-24T01:50:58.567Z,99.90
2018-05-24T01:53:27.387Z,99.90
2018-05-24T01:55:55.506Z,99.90
2018-05-24T01:58:23.535Z,99.90
2018-05-24T02:00:51.590Z,99.90
2018-05-24T02:03:19.634Z,99.90
2018-05-24T02:05:47.764Z,99.90
2018-05-24T02:08:18.197Z,99.90
2018-05-24T02:10:47.001Z,99.90
2018-05-24T02:13:15.048Z,99.90
2018-05-24T02:15:43.871Z,99.90
2018-05-24T02:18:11.915Z,99.90
2018-05-24T02:20:39.969Z,99.90
2018-05-24T02:23:08.038Z,99.90
2018-05-24T02:25:36.068Z,99.90
2018-05-24T02:28:04.121Z,99.90
2018-05-24T02:30:32.316Z,99.90
2018-05-24T02:33:00.366Z,99.90
2018-05-24T02:35:29.872Z,99.90
2018-05-24T02:37:57.925Z,99.90
2018-05-24T02:40:26.835Z,99.90
2018-05-24T02:42:54.851Z,99.90
2018-05-24T02:45:23.160Z,99.90
2018-05-24T02:47:51.981Z,99.90
2018-05-24T02:50:20.029Z,99.90
2018-05-24T02:52:48.094Z,99.90
2018-05-24T02:55:17.149Z,99.90
2018-05-24T02:57:45.181Z,99.90
2018-05-24T03:00:13.220Z,99.90
2018-05-24T03:02:42.059Z,99.90
2018-05-24T03:05:10.111Z,99.90
2018-05-24T03:07:38.181Z,99.90
2018-05-24T03:10:06.216Z,99.90
2018-05-24T03:12:34.268Z,99.90
2018-05-24T03:15:02.815Z,99.90
2018-05-24T03:17:30.927Z,99.90
2018-05-24T03:20:01.462Z,99.90
2018-05-24T03:22:29.519Z,99.90
2018-05-24T03:24:57.564Z,99.90
2018-05-24T03:27:25.638Z,99.90
2018-05-24T03:29:53.671Z,99.90
2018-05-24T03:32:21.761Z,99.90
2018-05-24T03:34:49.811Z,99.90
2018-05-24T03:37:17.861Z,99.90
2018-05-24T03:39:46.664Z,99.90
2018-05-24T03:42:14.716Z,99.90
2018-05-24T03:44:42.764Z,99.90
2018-05-24T03:47:10.824Z,99.90
2018-05-24T03:49:38.871Z,99.90
2018-05-24T03:52:07.011Z,99.90
2018-05-24T03:54:34.959Z,99.90
2018-05-24T03:57:03.015Z,99.90
2018-05-24T04:02:53.350Z,99.90
2018-05-24T04:05:29.405Z,99.90
2018-05-24T04:07:57.841Z,99.90
2018-05-24T04:10:25.897Z,99.90
2018-05-24T04:12:54.005Z,99.90
2018-05-24T04:15:23.027Z,99.90
2018-05-24T04:17:51.080Z,99.90
2018-05-24T04:20:19.125Z,99.90
2018-05-24T04:22:47.173Z,99.90
2018-05-24T04:25:15.229Z,99.90
2018-05-24T04:27:44.046Z,99.90
2018-05-24T04:30:12.104Z,99.90
2018-05-24T04:32:40.153Z,99.90
2018-05-24T04:35:08.975Z,99.90
2018-05-24T04:37:37.036Z,99.90
2018-05-24T04:40:05.059Z,99.90
2018-05-24T04:42:33.448Z,99.90
2018-05-24T04:45:01.759Z,99.90
2018-05-24T04:47:29.883Z,99.90
2018-05-24T04:49:58.115Z,99.90
2018-05-24T04:52:26.144Z,99.90
2018-05-24T04:54:57.668Z,99.90
2018-05-24T04:57:25.799Z,99.90
2018-05-24T04:59:54.623Z,99.90
2018-05-24T05:02:22.678Z,99.90
2018-05-24T05:04:50.730Z,99.90
2018-05-24T05:07:22.228Z,99.90
2018-05-24T05:09:50.289Z,99.90
2018-05-24T05:12:20.956Z,99.90
2018-05-24T05:14:48.964Z,99.90
2018-05-24T05:17:20.540Z,99.90
2018-05-24T05:19:48.665Z,99.90
2018-05-24T05:22:17.472Z,99.90
2018-05-24T05:24:47.351Z,99.90
2018-05-24T05:27:17.275Z,99.90
2018-05-24T05:29:46.089Z,99.90
2018-05-24T05:32:15.936Z,99.90
2018-05-24T05:34:43.984Z,99.90
2018-05-24T05:37:12.040Z,99.90
2018-05-24T05:39:40.089Z,99.90
2018-05-24T05:42:09.010Z,99.90
2018-05-24T05:44:37.070Z,99.90
2018-05-24T05:47:05.100Z,99.90
2018-05-24T05:49:36.460Z,99.90
2018-05-24T05:52:05.329Z,99.90
2018-05-24T05:54:35.313Z,99.90
2018-05-24T05:57:03.353Z,99.90
2018-05-24T05:59:32.072Z,99.90
2018-05-24T06:02:00.244Z,99.90
2018-05-24T06:04:28.188Z,99.90
2018-05-24T06:06:56.998Z,99.90
2018-05-24T06:09:26.439Z,99.90
2018-05-24T06:11:54.490Z,99.90
2018-05-24T06:14:23.410Z,99.90
2018-05-24T06:16:51.445Z,99.90
2018-05-24T06:19:19.488Z,99.90
2018-05-24T06:21:47.532Z,99.90
2018-05-24T06:24:16.344Z,99.90
2018-05-24T06:26:44.388Z,99.90
2018-05-24T06:29:13.211Z,99.90
2018-05-24T06:31:41.252Z,99.90
2018-05-24T06:34:09.307Z,99.90
2018-05-24T06:36:37.352Z,99.90
2018-05-24T06:39:06.295Z,99.90
2018-05-24T06:41:34.335Z,99.90
2018-05-24T06:44:02.406Z,99.90
2018-05-24T06:46:30.552Z,99.90
2018-05-24T06:48:58.504Z,99.90
2018-05-24T06:51:26.543Z,99.90
2018-05-24T06:53:55.357Z,99.90
2018-05-24T06:56:23.400Z,99.90
2018-05-24T06:58:52.469Z,99.90
2018-05-24T07:01:26.119Z,99.90
2018-05-24T07:03:59.656Z,99.90
2018-05-24T07:06:33.342Z,99.90
2018-05-24T07:09:01.389Z,99.90
2018-05-24T07:11:29.468Z,99.90
2018-05-24T07:13:57.510Z,99.90
2018-05-24T07:16:26.303Z,99.90
2018-05-24T07:18:54.352Z,99.90
2018-05-24T07:21:22.394Z,99.90
2018-05-24T07:23:50.436Z,99.90
2018-05-24T07:26:21.080Z,99.90
2018-05-24T07:28:49.128Z,99.90
2018-05-24T07:31:17.184Z,99.90
2018-05-24T07:33:46.017Z,99.90
2018-05-24T07:36:14.064Z,99.90
2018-05-24T07:38:42.101Z,99.90
2018-05-24T07:41:10.149Z,99.90
2018-05-24T07:43:38.192Z,99.90
2018-05-24T07:46:06.253Z,99.90
2018-05-24T07:48:34.288Z,99.90
2018-05-24T07:51:03.107Z,99.90
2018-05-24T07:53:31.148Z,99.90
2018-05-24T07:55:59.977Z,99.90
2018-05-24T07:58:28.020Z,99.90
2018-05-24T08:00:56.075Z,99.90
2018-05-24T08:03:24.107Z,99.90
2018-05-24T08:05:52.170Z,99.90
2018-05-24T08:08:20.206Z,99.90
2018-05-24T08:10:48.247Z,99.90
2018-05-24T08:13:17.074Z,99.90
2018-05-24T08:15:45.124Z,99.90
2018-05-24T08:18:13.936Z,99.90
2018-05-24T08:20:42.001Z,99.90
2018-05-24T08:23:10.059Z,99.90
2018-05-24T08:25:38.096Z,99.90
2018-05-24T08:28:06.124Z,99.90
2018-05-24T08:30:34.174Z,99.90
2018-05-24T08:33:02.975Z,99.90
2018-05-24T08:35:31.036Z,99.90
2018-05-24T08:37:59.068Z,99.90
2018-05-24T08:40:27.112Z,99.90
2018-05-24T08:42:55.152Z,99.90
2018-05-24T08:45:23.203Z,99.90
2018-05-24T08:47:52.013Z,99.90
2018-05-24T08:50:20.073Z,99.90
2018-05-24T08:52:48.879Z,99.90
2018-05-24T08:55:16.930Z,99.90
2018-05-24T08:57:44.967Z,99.90
2018-05-24T09:00:13.014Z,99.90
2018-05-24T09:02:41.059Z,99.90
2018-05-24T09:05:09.112Z,99.90
2018-05-24T09:07:37.144Z,99.90
2018-05-24T09:10:05.199Z,99.90
2018-05-24T09:12:33.251Z,99.90
2018-05-24T09:15:01.318Z,99.90
2018-05-24T09:17:29.339Z,99.90
2018-05-24T09:19:58.173Z,99.90
2018-05-24T09:22:26.200Z,99.90
2018-05-24T09:24:54.245Z,99.90
2018-05-24T09:27:22.302Z,99.90
2018-05-24T09:29:50.334Z,99.90
2018-05-24T09:32:19.192Z,99.90
2018-05-24T09:34:47.238Z,99.90
2018-05-24T09:37:15.283Z,99.90
2018-05-24T09:39:43.312Z,99.90
2018-05-24T09:42:12.142Z,99.90
2018-05-24T09:44:40.205Z,99.90
2018-05-24T09:47:08.243Z,99.90
2018-05-24T09:49:36.286Z,99.90
2018-05-24T09:52:04.369Z,98.10
2018-05-24T09:54:32.396Z,98.20
2018-05-24T09:57:00.440Z,98.20
2018-05-24T09:59:29.247Z,98.30
2018-05-24T10:01:57.287Z,98.50
2018-05-24T10:04:25.327Z,98.60
2018-05-24T10:06:53.380Z,97.90
2018-05-24T10:09:21.429Z,97.70
2018-05-24T10:11:49.502Z,97.20
2018-05-24T10:14:18.283Z,95.90
2018-05-24T10:16:46.335Z,95.90
2018-05-24T10:19:15.140Z,94.80
2018-05-24T10:21:43.184Z,94.70
2018-05-24T10:24:11.990Z,93.90
2018-05-24T10:26:40.812Z,92.90
2018-05-24T10:29:08.859Z,92.80
2018-05-24T10:31:36.903Z,93.20
2018-05-24T10:34:05.711Z,91.00
2018-05-24T10:36:34.531Z,87.00
2018-05-24T10:39:02.584Z,87.00
2018-05-24T10:41:30.641Z,85.80
2018-05-24T10:43:59.450Z,81.20
2018-05-24T10:46:27.512Z,81.00
2018-05-24T10:48:55.551Z,80.10
2018-05-24T10:51:23.662Z,82.50
2018-05-24T10:53:55.688Z,84.00
2018-05-24T10:56:24.529Z,85.80
2018-05-24T10:58:52.555Z,85.80
2018-05-24T11:01:21.368Z,80.10
2018-05-24T11:03:49.404Z,80.00
2018-05-24T11:06:18.239Z,78.80
2018-05-24T11:08:46.265Z,78.70
2018-05-24T11:11:15.080Z,77.60
2018-05-24T11:13:43.115Z,77.10
2018-05-24T11:16:11.168Z,75.40
2018-05-24T11:18:39.210Z,72.90
2018-05-24T11:21:07.265Z,74.20
2018-05-24T11:23:35.316Z,70.40
2018-05-24T11:26:04.460Z,68.80
2018-05-24T11:28:32.513Z,68.70
2018-05-24T11:31:00.555Z,68.90
2018-05-24T11:33:29.365Z,68.10
2018-05-24T11:35:57.404Z,68.10
2018-05-24T11:38:26.231Z,66.90
2018-05-24T11:40:55.033Z,68.00
2018-05-24T11:43:23.272Z,68.00
2018-05-24T11:45:51.140Z,69.60
2018-05-24T11:48:19.199Z,72.30
2018-05-24T11:50:48.002Z,71.30
2018-05-24T11:53:16.065Z,71.20
2018-05-24T11:55:44.872Z,70.10
2018-05-24T11:58:12.941Z,70.20
2018-05-24T12:00:40.984Z,68.80
2018-05-24T12:03:09.808Z,66.50
2018-05-24T12:05:37.851Z,66.20
2018-05-24T12:08:06.676Z,67.50
2018-05-24T12:10:34.738Z,67.50
2018-05-24T12:13:02.808Z,68.40
2018-05-24T12:15:30.835Z,66.60
2018-05-24T12:17:58.948Z,66.90
2018-05-24T12:20:27.036Z,64.60
2018-05-24T12:22:55.100Z,65.30
2018-05-24T12:25:23.147Z,66.40
2018-05-24T12:27:51.191Z,63.50
2018-05-24T12:30:19.231Z,66.30
2018-05-24T12:32:47.277Z,64.80
2018-05-24T12:35:15.385Z,62.00
2018-05-24T12:37:44.138Z,59.60
2018-05-24T12:40:12.178Z,59.50
2018-05-24T12:42:40.999Z,59.40
2018-05-24T12:45:09.032Z,59.30
2018-05-24T12:47:37.858Z,60.30
2018-05-24T12:50:05.895Z,60.30
2018-05-24T12:52:33.952Z,58.50
2018-05-24T12:55:02.009Z,55.60
2018-05-24T12:57:30.089Z,56.30
2018-05-24T12:59:58.129Z,58.00
2018-05-24T13:02:26.186Z,55.50
2018-05-24T13:04:54.235Z,58.00
2018-05-24T13:07:22.292Z,58.70
2018-05-24T13:09:51.163Z,58.00
2018-05-24T13:12:19.158Z,58.00
2018-05-24T13:14:47.957Z,59.90
2018-05-24T13:17:16.035Z,59.80
2018-05-24T13:19:44.824Z,52.20
2018-05-24T13:22:12.890Z,52.20
2018-05-24T13:24:40.927Z,50.90
2018-05-24T13:27:09.748Z,52.90
2018-05-24T13:29:37.790Z,52.90
2018-05-24T13:32:06.612Z,59.40
2018-05-24T13:34:34.723Z,59.40
2018-05-24T13:37:02.708Z,61.30
2018-05-24T13:39:30.789Z,64.00
2018-05-24T13:41:58.844Z,66.30
2018-05-24T13:44:26.883Z,64.20
2018-05-24T13:46:54.940Z,64.10
2018-05-24T13:49:22.988Z,66.30
2018-05-24T13:51:53.417Z,75.80
2018-05-24T13:54:21.472Z,81.70
2018-05-24T13:56:50.271Z,90.10
2018-05-24T13:59:19.185Z,93.60
2018-05-24T14:01:47.224Z,93.60
2018-05-24T14:04:16.024Z,97.50
2018-05-24T14:06:44.068Z,97.60
2018-05-24T14:09:12.123Z,97.00
2018-05-24T14:11:40.175Z,98.20
2018-05-24T14:14:08.279Z,97.40
2018-05-24T14:16:36.323Z,96.90
2018-05-24T14:19:04.383Z,98.10
2018-05-24T14:21:32.421Z,98.20
2018-05-24T14:24:00.471Z,99.00
2018-05-24T14:26:28.518Z,99.40
2018-05-24T14:28:56.565Z,99.20
2018-05-24T14:31:24.613Z,99.90
2018-05-24T14:33:53.429Z,99.90
2018-05-24T14:36:22.184Z,99.90
2018-05-24T14:38:50.988Z,97.90
2018-05-24T14:41:19.015Z,97.90
2018-05-24T14:43:47.840Z,99.90
2018-05-24T14:46:15.875Z,99.90
2018-05-24T14:48:44.697Z,99.90
2018-05-24T14:51:12.736Z,99.90
2018-05-24T14:53:40.871Z,99.80
2018-05-24T14:56:08.919Z,99.70
2018-05-24T14:58:36.979Z,99.90
2018-05-24T15:01:05.016Z,99.90
2018-05-24T15:03:33.065Z,99.90
2018-05-24T15:06:01.125Z,99.90
2018-05-24T15:08:29.202Z,99.00
2018-05-24T15:10:57.251Z,98.90
2018-05-24T15:13:37.152Z,99.50
2018-05-24T15:16:05.986Z,99.90
2018-05-24T15:18:34.055Z,99.90
2018-05-24T15:21:02.078Z,99.90
2018-05-24T15:23:30.907Z,99.60
2018-05-24T15:25:58.941Z,99.40
2018-05-24T15:28:27.761Z,99.40
2018-05-24T15:30:55.803Z,99.40
2018-05-24T15:33:24.636Z,98.10
2018-05-24T15:35:52.671Z,98.10
2018-05-24T15:38:21.483Z,97.90
2018-05-24T15:40:49.536Z,97.90
2018-05-24T15:43:17.600Z,97.30
2018-05-24T15:45:45.652Z,97.50
2018-05-24T15:48:13.698Z,96.60
2018-05-24T15:50:41.738Z,97.30
2018-05-24T15:53:09.799Z,95.50
2018-05-24T15:55:37.994Z,96.30
2018-05-24T15:58:06.080Z,96.40
2018-05-24T16:00:34.119Z,96.00
2018-05-24T16:03:02.165Z,94.60
2018-05-24T16:05:30.209Z,93.50
2018-05-24T16:07:58.509Z,95.20
2018-05-24T16:10:27.308Z,95.80
2018-05-24T16:12:56.124Z,95.40
2018-05-24T16:15:24.153Z,95.40
2018-05-24T16:17:52.969Z,97.20
2018-05-24T16:20:21.027Z,97.20
2018-05-24T16:22:49.835Z,96.90
2018-05-24T16:25:17.884Z,96.90
2018-05-24T16:27:46.774Z,96.40
2018-05-24T16:30:14.920Z,96.40
2018-05-24T16:32:42.967Z,96.20
2018-05-24T16:35:11.004Z,97.70
2018-05-24T16:37:39.057Z,97.50
2018-05-24T16:40:07.880Z,98.10
2018-05-24T16:42:35.937Z,98.10
2018-05-24T16:45:04.127Z,98.80
2018-05-24T16:47:32.181Z,99.20
2018-05-24T16:50:00.208Z,99.40
2018-05-24T16:52:28.260Z,99.90
2018-05-24T16:54:56.380Z,99.90
2018-05-24T16:57:24.444Z,99.90
2018-05-24T16:59:53.295Z,99.90
2018-05-24T17:02:21.457Z,99.90
2018-05-24T17:04:49.503Z,99.90
2018-05-24T17:07:17.532Z,99.90
2018-05-24T17:09:45.577Z,99.90
2018-05-24T17:12:13.611Z,99.90
2018-05-24T17:14:41.851Z,99.90
2018-05-24T17:17:09.886Z,99.90
2018-05-24T17:19:37.921Z,99.90
2018-05-24T17:22:05.973Z,99.90
2018-05-24T17:24:34.783Z,99.90
2018-05-24T17:27:02.837Z,99.90
2018-05-24T17:29:31.641Z,99.90
2018-05-24T17:32:00.017Z,99.90
2018-05-24T17:34:28.812Z,99.80
2018-05-24T17:36:56.862Z,99.80
2018-05-24T17:39:25.679Z,99.90
2018-05-24T17:41:53.735Z,99.90
2018-05-24T17:44:21.780Z,99.90
2018-05-24T17:46:50.592Z,99.90
2018-05-24T17:49:18.623Z,99.90
2018-05-24T17:51:46.672Z,99.90
2018-05-24T17:54:14.764Z,99.90
2018-05-24T17:56:42.795Z,99.90
2018-05-24T17:59:11.264Z,99.90
2018-05-24T18:01:39.329Z,99.90
2018-05-24T18:04:07.368Z,99.90
2018-05-24T18:06:36.193Z,99.90
2018-05-24T18:09:04.284Z,99.90
2018-05-24T18:11:32.352Z,99.90
2018-05-24T18:14:00.384Z,99.90
2018-05-24T18:16:29.191Z,99.90
2018-05-24T18:18:57.248Z,99.90
2018-05-24T18:21:25.291Z,99.90
2018-05-24T18:23:53.337Z,99.90
2018-05-24T18:26:21.404Z,99.90
2018-05-24T18:28:49.683Z,99.90
2018-05-24T18:31:17.720Z,99.90
2018-05-24T18:33:45.752Z,99.90
2018-05-24T18:36:13.809Z,99.90
2018-05-24T18:38:41.859Z,99.90
2018-05-24T18:41:09.893Z,99.90
2018-05-24T18:43:37.933Z,99.90
2018-05-24T18:46:06.078Z,99.90
2018-05-24T18:48:34.132Z,99.90
2018-05-24T18:51:02.182Z,99.90
2018-05-24T18:53:30.213Z,99.90
2018-05-24T18:55:58.278Z,99.90
2018-05-24T18:58:26.342Z,99.90
2018-05-24T19:00:54.384Z,99.90
2018-05-24T19:03:22.436Z,99.90
2018-05-24T19:05:51.399Z,99.90
2018-05-24T19:08:20.216Z,99.90
2018-05-24T19:10:48.263Z,99.90
2018-05-24T19:13:17.085Z,99.90
2018-05-24T19:15:45.146Z,99.90
2018-05-24T19:18:13.190Z,99.90
2018-05-24T19:20:42.006Z,99.90
2018-05-24T19:23:10.060Z,99.90
2018-05-24T19:25:38.860Z,99.90
2018-05-24T19:28:06.925Z,99.90
2018-05-24T19:30:34.965Z,99.90
2018-05-24T19:33:03.410Z,99.90
2018-05-24T19:35:31.444Z,99.90
2018-05-24T19:38:00.249Z,99.90
2018-05-24T19:40:28.417Z,99.90
2018-05-24T19:42:56.425Z,99.90
2018-05-24T19:45:24.463Z,99.90
2018-05-24T19:47:52.533Z,99.90
2018-05-24T19:50:20.591Z,99.90
2018-05-24T19:52:49.393Z,99.90
2018-05-24T19:55:17.421Z,99.90
2018-05-24T19:57:45.467Z,99.90
2018-05-24T20:00:13.498Z,99.90
2018-05-24T20:02:41.747Z,99.90
2018-05-24T20:05:10.544Z,99.90
2018-05-24T20:07:39.354Z,99.90
2018-05-24T20:10:07.605Z,99.90
2018-05-24T20:12:35.623Z,99.00
2018-05-24T20:15:04.100Z,99.00
2018-05-24T20:17:32.123Z,98.90
2018-05-24T20:20:01.099Z,98.10
2018-05-24T20:22:29.249Z,98.00
2018-05-24T20:24:57.260Z,97.60
2018-05-24T20:27:26.068Z,96.60
2018-05-24T20:29:54.283Z,96.60
2018-05-24T20:32:22.289Z,96.10
2018-05-24T20:34:51.204Z,95.80
2018-05-24T20:37:19.304Z,95.80
2018-05-24T20:39:48.064Z,94.50
2018-05-24T20:42:16.806Z,94.50
2018-05-24T20:44:44.848Z,94.90
2018-05-24T20:47:13.066Z,95.10
2018-05-24T20:49:41.912Z,95.40
2018-05-24T20:52:09.944Z,95.30
2018-05-24T20:54:38.144Z,95.50
2018-05-24T20:57:07.080Z,94.90
2018-05-24T20:59:35.142Z,94.90
2018-05-24T21:02:03.328Z,95.30
2018-05-24T21:04:31.417Z,96.00
2018-05-24T21:06:59.441Z,96.80
2018-05-24T21:09:27.512Z,97.00
2018-05-24T21:11:55.614Z,97.50
2018-05-24T21:14:23.668Z,98.20
2018-05-24T21:16:51.722Z,98.10
2018-05-24T21:19:19.810Z,97.90
2018-05-24T21:21:47.852Z,98.50
2018-05-24T21:24:16.069Z,98.40
2018-05-24T21:26:44.112Z,98.60
2018-05-24T21:29:12.157Z,98.80
2018-05-24T21:31:40.204Z,98.90
2018-05-24T21:34:09.008Z,99.30
2018-05-24T21:36:37.213Z,99.30
2018-05-24T21:39:05.536Z,99.60
2018-05-24T21:41:33.577Z,99.90
2018-05-24T21:44:01.783Z,99.90
2018-05-24T21:46:30.575Z,99.90
2018-05-24T21:48:58.626Z,99.90
2018-05-24T21:51:26.876Z,99.90
2018-05-24T21:53:55.054Z,99.90
2018-05-24T21:56:23.156Z,99.90
2018-05-24T21:58:52.210Z,99.90
2018-05-24T22:01:20.292Z,99.90
2018-05-24T22:03:48.326Z,99.90
2018-05-24T22:06:16.441Z,99.90
2018-05-24T22:08:45.717Z,99.90
2018-05-24T22:11:13.754Z,99.90
2018-05-24T22:13:42.355Z,99.90
2018-05-24T22:16:10.397Z,99.90
2018-05-24T22:18:39.202Z,99.90
2018-05-24T22:21:07.292Z,99.90
2018-05-24T22:23:35.500Z,99.90
2018-05-24T22:26:03.540Z,99.90
2018-05-24T22:28:35.331Z,99.90
2018-05-24T22:31:03.676Z,99.90
2018-05-24T22:33:31.704Z,99.90
2018-05-24T22:36:00.544Z,99.90
2018-05-24T22:38:28.583Z,99.90
2018-05-24T22:40:56.626Z,99.90
2018-05-24T22:43:26.212Z,99.90
2018-05-24T22:45:54.248Z,99.90
2018-05-24T22:48:22.425Z,99.90
2018-05-24T22:50:50.507Z,99.90
2018-05-24T22:53:18.596Z,99.90
2018-05-24T22:55:46.646Z,99.90
2018-05-24T22:58:14.731Z,99.90
2018-05-24T23:00:42.762Z,99.90
2018-05-24T23:03:11.093Z,99.90
2018-05-24T23:05:39.444Z,99.90
2018-05-24T23:08:07.489Z,99.90
2018-05-24T23:10:35.524Z,99.90
2018-05-24T23:13:03.574Z,99.90
2018-05-24T23:15:31.619Z,99.90
2018-05-24T23:17:59.656Z,99.90
2018-05-24T23:20:27.709Z,99.90
2018-05-24T23:22:55.745Z,99.90
2018-05-24T23:25:23.788Z,99.90
2018-05-24T23:27:51.828Z,99.90
2018-05-24T23:30:20.642Z,99.90
2018-05-24T23:32:48.680Z,99.90
2018-05-24T23:35:17.502Z,99.90
2018-05-24T23:37:45.541Z,99.90
2018-05-24T23:40:14.358Z,99.90
2018-05-24T23:42:42.414Z,99.90
2018-05-24T23:45:11.223Z,99.90
2018-05-24T23:47:39.255Z,99.90
2018-05-24T23:50:08.072Z,99.90
2018-05-24T23:52:36.111Z,99.90
2018-05-24T23:55:04.164Z,99.90
2018-05-24T23:57:32.196Z,99.90
